Time;durP1;ratioP1;P1;durP2;ratioP2;P2;SDS_P1;SDS_P2;PMS_P1;PMS_P2;Temp;Humidity;BMP_temperature;BMP_pressure;BME280_temperature;BME280_humidity;BME280_pressure;Samples;Min_cycle;Max_cycle;Signal;HPM_P1;HPM_P2
2021/09/06 00:00:48;;;;;;;12.30;7.80;;;;;;;9.16;81.90;98145.23;116184;1184;59555;-76
2021/09/06 00:03:17;;;;;;;13.40;8.20;;;;;;;9.10;81.83;98142.77;116189;1181;59556;-75
2021/09/06 00:05:48;;;;;;;12.10;7.60;;;;;;;9.03;81.60;98146.02;116071;1184;70830;-72
2021/09/06 00:08:17;;;;;;;11.90;7.40;;;;;;;8.97;83.04;98149.65;116153;1184;69133;-77
2021/09/06 00:10:50;;;;;;;11.50;7.80;;;;;;;8.93;83.63;98144.95;116160;1184;69199;-75
2021/09/06 00:13:20;;;;;;;13.20;8.60;;;;;;;8.91;83.25;98142.77;116216;1184;59565;-76
2021/09/06 00:15:50;;;;;;;13.60;9.30;;;;;;;8.90;82.65;98144.98;116167;1184;59556;-77
2021/09/06 00:18:20;;;;;;;13.10;8.90;;;;;;;8.90;82.71;98143.16;116138;1184;71350;-76
2021/09/06 00:20:50;;;;;;;16.80;9.10;;;;;;;8.88;82.84;98143.98;116158;1183;68646;-75
2021/09/06 00:23:20;;;;;;;14.00;9.10;;;;;;;8.85;83.03;98140.48;116096;1184;68062;-76
2021/09/06 00:25:50;;;;;;;14.80;8.40;;;;;;;8.81;83.10;98140.36;116164;1180;59547;-77
2021/09/06 00:28:19;;;;;;;11.70;8.10;;;;;;;8.77;82.71;98141.33;116182;1184;59552;-76
2021/09/06 00:30:48;;;;;;;13.30;7.60;;;;;;;8.71;82.86;98139.27;116192;1184;71075;-76
2021/09/06 00:33:21;;;;;;;10.40;6.50;;;;;;;8.67;83.29;98142.23;116155;1183;69328;-76
2021/09/06 00:35:50;;;;;;;12.30;7.50;;;;;;;8.61;84.00;98143.16;116241;1183;69213;-74
2021/09/06 00:38:22;;;;;;;12.70;7.40;;;;;;;8.58;83.55;98145.08;116144;1180;59592;-76
2021/09/06 00:40:52;;;;;;;14.80;8.40;;;;;;;8.58;82.80;98149.09;116210;1179;59554;-76
2021/09/06 00:43:22;;;;;;;13.20;8.50;;;;;;;8.61;82.83;98145.52;116175;1184;70207;-74
2021/09/06 00:45:51;;;;;;;14.30;7.60;;;;;;;8.62;83.18;98143.48;116161;1184;68869;-77
2021/09/06 00:48:25;;;;;;;12.00;7.60;;;;;;;8.59;82.86;98140.58;116163;1183;68130;-76
2021/09/06 00:50:55;;;;;;;11.90;7.00;;;;;;;8.52;82.94;98139.08;116210;1184;59541;-76
2021/09/06 00:53:25;;;;;;;11.00;6.70;;;;;;;8.45;82.77;98138.04;116215;1184;59567;-71
2021/09/06 00:55:56;;;;;;;11.80;7.00;;;;;;;8.38;82.56;98135.58;116149;1180;70646;-75
2021/09/06 00:58:27;;;;;;;12.10;6.80;;;;;;;8.31;82.79;98142.58;116211;1183;69179;-74
2021/09/06 01:00:58;;;;;;;14.90;7.80;;;;;;;8.24;82.71;98140.64;116230;1184;68500;-74
2021/09/06 01:03:28;;;;;;;10.10;6.80;;;;;;;8.17;82.91;98147.08;116189;1182;59533;-76
2021/09/06 01:06:04;;;;;;;11.10;7.60;;;;;;;8.14;83.10;98145.94;116028;1181;59539;-77
2021/09/06 01:08:52;;;;;;;12.20;8.10;;;;;;;8.14;84.00;98143.89;116163;1183;69701;-76
2021/09/06 01:11:34;;;;;;;11.90;7.40;;;;;;;8.14;84.04;98140.42;116195;1184;68392;-76
2021/09/06 01:14:03;;;;;;;15.20;7.20;;;;;;;8.11;83.08;98141.38;116223;1179;67428;-76
2021/09/06 01:16:36;;;;;;;12.60;7.70;;;;;;;8.10;83.66;98141.64;116112;1180;59560;-76
2021/09/06 01:19:07;;;;;;;13.10;8.00;;;;;;;8.07;82.88;98138.41;116200;1179;59556;-77
2021/09/06 01:21:38;;;;;;;13.20;9.20;;;;;;;8.07;83.91;98138.17;116197;1184;71246;-75
2021/09/06 01:24:26;;;;;;;14.90;9.50;;;;;;;8.05;83.52;98137.23;116175;1184;68371;-75
2021/09/06 01:26:58;;;;;;;12.80;8.20;;;;;;;8.05;83.94;98141.66;116113;1183;69706;-72
2021/09/06 01:29:28;;;;;;;15.00;9.20;;;;;;;8.04;84.06;98148.45;116174;1184;59548;-77
2021/09/06 01:31:59;;;;;;;12.80;8.40;;;;;;;8.01;83.99;98147.69;116128;1182;59536;-77
2021/09/06 01:34:30;;;;;;;12.70;8.20;;;;;;;7.98;84.51;98150.77;116208;1184;70362;-76
2021/09/06 01:37:02;;;;;;;14.50;8.70;;;;;;;7.97;84.89;98151.90;116202;1184;69071;-74
2021/09/06 01:39:35;;;;;;;14.20;7.80;;;;;;;7.95;84.12;98155.55;116183;1184;69253;-75
2021/09/06 01:42:06;;;;;;;15.30;7.50;;;;;;;7.92;83.95;98156.83;116195;1181;59575;-75
2021/09/06 01:44:36;;;;;;;11.00;6.80;;;;;;;7.88;83.83;98157.30;116118;1181;59549;-75
2021/09/06 01:47:07;;;;;;;10.70;6.90;;;;;;;7.84;83.77;98157.98;116172;1184;71358;-75
2021/09/06 01:49:37;;;;;;;10.80;6.70;;;;;;;7.81;84.02;98159.42;116147;1181;69410;-76
2021/09/06 01:52:09;;;;;;;11.50;7.40;;;;;;;7.80;84.52;98159.19;116174;1179;68435;-76
2021/09/06 01:54:39;;;;;;;10.70;7.40;;;;;;;7.82;85.28;98156.89;116066;1181;59524;-77
2021/09/06 01:57:10;;;;;;;12.10;7.60;;;;;;;7.83;85.55;98162.63;116230;1182;59576;-76
2021/09/06 01:59:40;;;;;;;10.80;7.20;;;;;;;7.88;84.85;98168.66;116198;1184;71278;-75
2021/09/06 02:02:11;;;;;;;11.80;7.90;;;;;;;7.91;85.24;98167.00;116160;1184;68677;-75
2021/09/06 02:04:44;;;;;;;11.50;7.80;;;;;;;7.95;84.38;98167.05;116056;1181;69072;-75
2021/09/06 02:07:14;;;;;;;12.70;8.00;;;;;;;8.03;84.50;98165.95;116211;1184;59533;-76
2021/09/06 02:09:44;;;;;;;13.90;8.80;;;;;;;8.08;84.85;98165.53;116149;1180;59575;-75
2021/09/06 02:12:16;;;;;;;11.00;7.80;;;;;;;8.12;85.71;98170.70;116238;1184;71334;-75
2021/09/06 02:14:49;;;;;;;9.40;6.50;;;;;;;8.16;84.82;98168.30;116241;1179;68311;-75
2021/09/06 02:17:22;;;;;;;13.50;7.90;;;;;;;8.21;85.81;98168.81;116236;1184;68242;-75
2021/09/06 02:19:56;;;;;;;11.10;6.80;;;;;;;8.22;84.78;98168.09;116154;1183;59533;-74
2021/09/06 02:22:26;;;;;;;11.00;7.90;;;;;;;8.18;85.23;98171.05;116142;1184;59551;-74
2021/09/06 02:25:00;;;;;;;11.10;6.80;;;;;;;8.17;84.53;98172.55;116231;1183;70437;-75
2021/09/06 02:27:34;;;;;;;11.30;7.30;;;;;;;8.16;84.41;98175.71;116151;1184;67742;-75
2021/09/06 02:30:14;;;;;;;11.80;7.80;;;;;;;8.14;84.05;98173.84;116160;1184;69122;-74
2021/09/06 02:32:44;;;;;;;;;;;;;;;8.13;84.31;98176.92;116313;1179;59550;-76
2021/09/06 02:35:32;;;;;;;13.80;7.60;;;;;;;8.11;84.19;98175.45;116243;1184;59921;-76
2021/09/06 02:38:03;;;;;;;11.30;7.50;;;;;;;8.08;84.63;98177.50;116201;1183;71148;-76
2021/09/06 02:40:34;;;;;;;11.20;7.30;;;;;;;8.06;84.51;98173.41;115989;1183;68303;-75
2021/09/06 02:43:05;;;;;;;;;;;;;;;8.05;85.20;98174.12;116248;1179;68253;-77
2021/09/06 02:45:35;;;;;;;12.20;6.60;;;;;;;8.02;84.83;98171.08;116043;1182;59601;-77
2021/09/06 02:48:08;;;;;;;11.40;6.80;;;;;;;7.99;84.97;98167.41;116265;1181;59531;-75
2021/09/06 02:50:38;;;;;;;10.40;6.80;;;;;;;7.96;84.66;98169.48;116257;1183;71119;-74
2021/09/06 02:53:08;;;;;;;9.40;6.60;;;;;;;7.93;84.80;98164.63;116211;1184;68349;-75
2021/09/06 02:55:38;;;;;;;10.80;7.10;;;;;;;7.87;84.86;98166.06;115946;1182;68415;-75
2021/09/06 02:58:08;;;;;;;11.70;6.60;;;;;;;7.82;84.20;98170.13;116195;1179;59537;-75
2021/09/06 03:00:40;;;;;;;10.90;7.10;;;;;;;7.78;84.20;98172.60;116268;1183;59584;-74
2021/09/06 03:03:10;;;;;;;;;;;;;;;7.76;85.08;98168.04;116172;1181;70651;-75
2021/09/06 03:05:41;;;;;;;10.10;6.00;;;;;;;7.74;84.85;98171.52;116123;1183;69074;-75
2021/09/06 03:08:10;;;;;;;9.90;6.30;;;;;;;7.73;85.78;98173.58;116221;1183;69219;-74
2021/09/06 03:10:40;;;;;;;9.60;6.70;;;;;;;7.72;84.88;98173.72;116237;1182;59553;-75
2021/09/06 03:13:10;;;;;;;12.40;7.00;;;;;;;7.70;84.72;98175.47;116230;1179;59504;-71
2021/09/06 03:15:43;;;;;;;12.10;7.80;;;;;;;7.66;84.32;98174.24;116122;1184;71349;-75
2021/09/06 03:18:13;;;;;;;13.90;8.30;;;;;;;7.62;84.14;98174.27;116253;1179;69175;-75
2021/09/06 03:21:15;;;;;;;12.40;7.60;;;;;;;7.54;84.54;98176.13;116261;1183;68417;-75
2021/09/06 03:23:45;;;;;;;13.10;7.30;;;;;;;7.47;83.87;98174.42;116270;1184;59546;-75
2021/09/06 03:26:14;;;;;;;10.20;6.80;;;;;;;7.42;85.29;98169.88;116285;1181;59503;-75
2021/09/06 03:28:45;;;;;;;10.70;7.30;;;;;;;7.40;85.40;98172.42;116188;1184;71344;-75
2021/09/06 03:31:16;;;;;;;9.60;6.80;;;;;;;7.38;85.11;98172.74;116275;1179;68168;-75
2021/09/06 03:33:47;;;;;;;12.30;7.90;;;;;;;7.37;85.69;98169.84;116142;1182;69196;-75
2021/09/06 03:36:17;;;;;;;12.20;7.70;;;;;;;7.37;84.70;98167.16;116205;1180;59547;-73
2021/09/06 03:38:47;;;;;;;14.10;8.30;;;;;;;7.37;84.49;98174.09;116317;1182;59559;-74
2021/09/06 03:41:19;;;;;;;12.90;8.10;;;;;;;7.38;85.20;98172.35;116068;1180;71346;-74
2021/09/06 03:43:50;;;;;;;12.30;7.70;;;;;;;7.39;85.04;98175.34;116183;1184;67616;-75
2021/09/06 03:46:19;;;;;;;;;;;;;;;7.39;84.88;98180.54;116151;1184;69212;-74
2021/09/06 03:48:49;;;;;;;13.80;8.00;;;;;;;7.40;85.35;98175.89;116111;1182;59548;-74
2021/09/06 03:51:19;;;;;;;12.20;7.20;;;;;;;7.43;86.05;98180.04;116175;1182;59515;-75
2021/09/06 03:53:49;;;;;;;;;;;;;;;7.48;85.75;98175.76;116049;1182;70924;-75
2021/09/06 03:56:20;;;;;;;12.50;7.30;;;;;;;7.51;86.08;98176.52;116256;1180;69180;-75
2021/09/06 03:58:50;;;;;;;11.90;7.70;;;;;;;7.58;86.17;98179.17;116102;1180;68613;-76
2021/09/06 04:01:20;;;;;;;15.30;8.20;;;;;;;7.63;86.23;98176.15;116161;1184;59537;-76
2021/09/06 04:03:50;;;;;;;9.70;6.70;;;;;;;7.69;86.24;98177.05;116099;1179;59541;-76
2021/09/06 04:06:21;;;;;;;14.10;7.80;;;;;;;7.74;85.58;98182.87;116188;1184;70533;-75
2021/09/06 04:08:50;;;;;;;14.70;8.00;;;;;;;7.76;85.03;98184.66;115940;1184;69138;-75
2021/09/06 04:11:20;;;;;;;12.00;7.70;;;;;;;7.78;84.61;98185.28;116042;1184;69276;-75
2021/09/06 04:13:50;;;;;;;13.30;7.70;;;;;;;7.81;84.39;98188.80;116173;1179;59554;-74
2021/09/06 04:16:20;;;;;;;10.40;6.80;;;;;;;7.88;84.67;98189.39;116101;1184;59539;-75
2021/09/06 04:18:49;;;;;;;11.10;7.20;;;;;;;8.03;84.38;98186.76;116202;1181;71310;-74
2021/09/06 04:21:18;;;;;;;12.90;7.60;;;;;;;8.09;84.31;98187.67;116185;1182;69162;-73
2021/09/06 04:23:49;;;;;;;11.90;6.50;;;;;;;8.14;83.94;98183.46;116163;1184;68242;-75
2021/09/06 04:26:18;;;;;;;10.90;6.80;;;;;;;8.17;83.92;98185.30;116133;1184;59491;-75
2021/09/06 04:28:51;;;;;;;10.00;6.40;;;;;;;8.21;83.76;98188.75;116032;1181;59873;-74
2021/09/06 04:31:20;;;;;;;11.10;7.40;;;;;;;8.23;83.50;98190.94;116233;1180;70537;-75
2021/09/06 04:33:50;;;;;;;14.50;7.00;;;;;;;8.26;83.07;98195.50;116177;1184;68423;-75
2021/09/06 04:36:19;;;;;;;12.30;6.40;;;;;;;8.43;82.77;98196.42;116098;1184;69221;-75
2021/09/06 04:38:49;;;;;;;10.70;6.50;;;;;;;8.52;82.16;98200.67;116227;1184;59536;-75
2021/09/06 04:41:18;;;;;;;11.50;6.30;;;;;;;8.60;82.15;98197.05;116161;1179;59544;-76
2021/09/06 04:43:48;;;;;;;8.30;5.50;;;;;;;8.85;81.53;98201.54;116003;1185;70423;-75
2021/09/06 04:46:18;;;;;;;11.20;6.90;;;;;;;9.11;80.41;98203.01;116072;1182;68938;-75
2021/09/06 04:48:49;;;;;;;14.30;6.90;;;;;;;9.35;80.29;98205.33;116114;1185;69047;-74
2021/09/06 04:51:19;;;;;;;;;;;;;;;9.66;81.24;98210.23;116114;1181;59661;-73
2021/09/06 04:53:50;;;;;;;14.70;6.40;;;;;;;9.99;80.27;98213.73;116219;1181;59552;-74
2021/09/06 04:56:23;;;;;;;14.10;6.50;;;;;;;10.30;80.58;98215.17;116145;1184;69944;-76
2021/09/06 04:58:53;;;;;;;15.60;6.80;;;;;;;10.49;78.71;98217.71;116133;1184;68172;-75
2021/09/06 05:01:23;;;;;;;16.40;6.90;;;;;;;10.54;78.40;98219.05;116199;1184;68324;-75
2021/09/06 05:03:54;;;;;;;19.40;7.00;;;;;;;10.51;76.75;98222.05;116220;1181;59555;-75
2021/09/06 05:06:23;;;;;;;22.80;7.00;;;;;;;10.45;76.12;98225.54;116186;1183;59571;-75
2021/09/06 05:08:53;;;;;;;18.20;6.70;;;;;;;10.42;76.41;98222.74;116183;1184;71158;-75
2021/09/06 05:11:22;;;;;;;13.20;6.10;;;;;;;10.41;76.58;98226.16;116162;1181;67461;-75
2021/09/06 05:13:53;;;;;;;13.30;6.40;;;;;;;10.45;76.42;98225.16;116197;1184;68806;-74
2021/09/06 05:16:22;;;;;;;24.60;9.70;;;;;;;10.55;76.76;98226.09;116144;1182;59549;-76
2021/09/06 05:18:52;;;;;;;19.20;9.90;;;;;;;10.62;76.82;98228.60;115926;1181;59558;-75
2021/09/06 05:21:21;;;;;;;23.10;10.50;;;;;;;10.63;76.90;98228.48;115945;1181;71172;-72
2021/09/06 05:23:52;;;;;;;28.50;10.40;;;;;;;10.68;76.55;98231.66;115923;1181;68555;-74
2021/09/06 05:26:21;;;;;;;;;;;;;;;10.81;76.62;98229.92;116129;1182;68500;-75
2021/09/06 05:28:50;;;;;;;14.80;8.80;;;;;;;10.98;76.21;98229.30;116165;1184;59540;-75
2021/09/06 05:31:19;;;;;;;16.10;8.70;;;;;;;11.29;75.54;98227.21;116162;1181;59539;-74
2021/09/06 05:33:48;;;;;;;15.60;7.90;;;;;;;11.75;75.00;98222.48;116224;1184;71530;-72
2021/09/06 05:36:18;;;;;;;17.90;7.60;;;;;;;12.23;74.11;98225.34;116158;1181;69007;-76
2021/09/06 05:38:48;;;;;;;10.40;6.60;;;;;;;12.70;71.77;98224.58;116282;1183;67505;-75
2021/09/06 05:41:37;;;;;;;40.60;7.70;;;;;;;13.16;69.02;98227.91;116261;1183;59553;-71
2021/09/06 05:44:08;;;;;;;11.50;6.90;;;;;;;13.55;67.73;98230.83;116311;1182;59552;-74
2021/09/06 05:46:38;;;;;;;14.00;7.20;;;;;;;13.92;65.67;98235.57;116275;1184;71165;-75
2021/09/06 05:49:09;;;;;;;15.10;7.50;;;;;;;14.26;64.28;98237.38;116245;1183;69223;-72
2021/09/06 05:51:39;;;;;;;21.80;8.10;;;;;;;14.53;62.97;98237.84;115983;1182;69213;-74
2021/09/06 05:54:18;;;;;;;21.80;8.70;;;;;;;14.91;62.52;98235.29;116302;1183;59558;-75
2021/09/06 05:56:47;;;;;;;15.70;9.10;;;;;;;15.42;62.17;98233.69;116239;1183;59683;-73
2021/09/06 05:59:21;;;;;;;21.00;8.70;;;;;;;15.83;60.98;98232.92;116286;1184;71819;-76
2021/09/06 06:01:50;;;;;;;18.30;7.50;;;;;;;16.20;60.95;98231.89;116091;1181;69533;-76
2021/09/06 06:04:19;;;;;;;19.30;8.20;;;;;;;16.59;57.41;98233.48;116274;1179;69229;-72
2021/09/06 06:06:53;;;;;;;17.00;8.00;;;;;;;16.86;56.44;98232.78;116287;1183;59530;-75
2021/09/06 06:09:23;;;;;;;16.10;6.80;;;;;;;17.02;56.75;98235.23;116310;1178;59527;-75
2021/09/06 06:11:52;;;;;;;14.30;7.20;;;;;;;16.89;55.12;98235.22;116101;1184;71380;-77
2021/09/06 06:14:24;;;;;;;17.10;6.60;;;;;;;16.70;57.03;98235.45;116287;1183;68166;-77
2021/09/06 06:16:55;;;;;;;16.40;5.60;;;;;;;16.68;54.57;98233.93;116089;1184;69056;-75
2021/09/06 06:19:27;;;;;;;18.30;6.40;;;;;;;16.93;52.03;98232.02;116094;1184;59577;-76
2021/09/06 06:22:20;;;;;;;16.30;5.70;;;;;;;17.17;52.36;98233.64;116321;1183;59658;-76
2021/09/06 06:25:00;;;;;;;10.60;5.00;;;;;;;17.29;51.28;98232.21;116320;1179;71403;-76
2021/09/06 06:27:34;;;;;;;11.40;5.40;;;;;;;17.65;50.68;98233.85;116283;1179;68293;-78
2021/09/06 06:30:06;;;;;;;9.70;5.10;;;;;;;18.26;50.41;98233.17;116192;1184;68430;-78
2021/09/06 06:32:35;;;;;;;14.20;4.80;;;;;;;18.61;48.71;98232.67;116112;1183;59537;-75
2021/09/06 06:35:13;;;;;;;8.90;5.30;;;;;;;18.90;46.73;98236.42;116108;1181;59510;-75
2021/09/06 06:37:42;;;;;;;8.50;5.10;;;;;;;19.26;45.65;98233.85;116057;1182;71199;-77
2021/09/06 06:40:13;;;;;;;9.20;4.80;;;;;;;19.36;45.61;98235.79;116108;1180;68998;-77
2021/09/06 06:42:43;;;;;;;8.10;4.20;;;;;;;19.11;45.39;98235.78;116131;1180;68430;-77
2021/09/06 06:45:15;;;;;;;8.20;4.40;;;;;;;18.82;46.12;98237.62;116189;1181;59524;-76
2021/09/06 06:47:45;;;;;;;8.30;4.10;;;;;;;18.93;45.03;98236.95;116174;1181;59544;-77
2021/09/06 06:50:15;;;;;;;10.00;4.50;;;;;;;18.97;44.49;98238.50;116231;1179;71464;-78
2021/09/06 06:52:44;;;;;;;7.90;4.00;;;;;;;18.83;44.69;98236.77;116213;1179;69347;-72
2021/09/06 06:55:13;;;;;;;8.60;4.70;;;;;;;18.69;45.32;98236.77;116301;1183;68524;-72
2021/09/06 06:57:42;;;;;;;8.60;4.30;;;;;;;18.85;45.49;98235.27;116235;1183;59498;-71
2021/09/06 07:00:12;;;;;;;6.00;3.70;;;;;;;19.18;44.16;98239.20;116296;1179;59547;-74
2021/09/06 07:02:43;;;;;;;7.10;4.10;;;;;;;19.52;42.23;98246.27;116083;1181;71149;-73
2021/09/06 07:05:13;;;;;;;10.50;3.90;;;;;;;19.73;40.91;98242.14;116264;1184;68230;-72
2021/09/06 07:07:47;;;;;;;5.40;3.30;;;;;;;19.69;39.67;98246.85;116255;1184;68323;-78
2021/09/06 07:10:18;;;;;;;6.90;3.70;;;;;;;19.51;39.96;98247.62;116276;1183;59513;-79
2021/09/06 07:12:47;;;;;;;6.40;3.70;;;;;;;19.62;40.50;98248.77;115991;1182;59550;-74
2021/09/06 07:15:17;;;;;;;8.30;3.90;;;;;;;19.80;40.47;98246.35;116242;1184;70369;-76
2021/09/06 07:17:47;;;;;;;9.40;3.80;;;;;;;19.97;39.87;98248.61;116287;1179;69168;-75
2021/09/06 07:20:17;;;;;;;;;;;;;;;20.17;39.94;98249.61;116252;1183;69052;-74
2021/09/06 07:22:46;;;;;;;7.20;3.90;;;;;;;20.51;39.67;98246.48;116279;1183;59540;-75
2021/09/06 07:25:14;;;;;;;9.40;3.90;;;;;;;20.83;39.64;98249.54;116286;1179;59579;-71
2021/09/06 07:27:46;;;;;;;16.00;4.00;;;;;;;21.26;38.77;98244.64;116296;1183;71332;-77
2021/09/06 07:30:15;;;;;;;7.90;4.00;;;;;;;21.35;36.73;98243.77;116206;1179;69186;-77
2021/09/06 07:32:45;;;;;;;7.00;3.70;;;;;;;21.41;36.78;98245.45;116076;1184;68305;-73
2021/09/06 07:35:14;;;;;;;8.40;3.60;;;;;;;21.33;36.57;98237.72;116282;1179;59577;-73
2021/09/06 07:37:44;;;;;;;5.30;3.60;;;;;;;21.32;36.37;98243.39;116183;1179;59536;-73
2021/09/06 07:40:14;;;;;;;10.20;3.90;;;;;;;21.20;36.18;98240.58;116252;1184;70793;-74
2021/09/06 07:42:47;;;;;;;6.50;3.70;;;;;;;21.18;36.31;98240.29;116278;1184;69867;-75
2021/09/06 07:45:17;;;;;;;9.10;4.20;;;;;;;20.97;36.97;98250.35;116019;1183;68281;-73
2021/09/06 07:47:46;;;;;;;6.00;4.00;;;;;;;21.03;36.97;98243.32;116099;1179;59539;-72
2021/09/06 07:50:22;;;;;;;8.90;4.00;;;;;;;21.04;36.15;98244.23;116270;1179;59561;-73
2021/09/06 07:52:51;;;;;;;6.50;4.00;;;;;;;20.89;36.81;98244.09;116177;1179;71023;-76
2021/09/06 07:55:20;;;;;;;7.10;3.90;;;;;;;20.94;36.88;98241.77;116088;1184;68685;-75
2021/09/06 07:57:49;;;;;;;7.80;3.70;;;;;;;20.95;36.91;98241.45;116274;1180;69390;-72
2021/09/06 08:00:19;;;;;;;6.60;4.00;;;;;;;21.20;36.03;98241.64;116274;1179;59546;-73
2021/09/06 08:02:49;;;;;;;5.30;3.50;;;;;;;21.06;36.16;98243.55;116268;1182;59457;-74
2021/09/06 08:05:28;;;;;;;6.70;3.70;;;;;;;21.02;36.31;98246.60;116269;1184;71346;-73
2021/09/06 08:08:02;;;;;;;8.10;4.20;;;;;;;20.99;36.08;98246.21;116305;1179;68639;-74
2021/09/06 08:10:31;;;;;;;10.40;4.30;;;;;;;20.90;36.47;98247.08;116137;1184;69144;-72
2021/09/06 08:13:02;;;;;;;7.00;3.90;;;;;;;21.19;36.93;98242.08;116113;1179;59585;-73
2021/09/06 08:15:32;;;;;;;6.20;3.50;;;;;;;21.47;36.66;98245.10;116331;1183;59967;-71
2021/09/06 08:18:06;;;;;;;6.10;3.60;;;;;;;21.73;36.15;98247.85;116303;1184;69630;-72
2021/09/06 08:20:43;;;;;;;6.30;3.70;;;;;;;22.19;36.18;98246.08;116298;1183;69058;-73
2021/09/06 08:23:12;;;;;;;6.10;3.70;;;;;;;22.57;34.23;98244.42;116258;1183;68751;-73
2021/09/06 08:25:42;;;;;;;7.80;3.50;;;;;;;22.69;33.83;98247.23;116288;1179;59539;-78
2021/09/06 08:28:12;;;;;;;7.70;3.90;;;;;;;22.52;33.28;98242.71;116281;1179;59543;-73
2021/09/06 08:30:41;;;;;;;6.90;3.90;;;;;;;22.38;33.26;98247.26;116149;1182;70863;-79
2021/09/06 08:33:10;;;;;;;7.60;3.80;;;;;;;22.55;33.97;98246.77;116173;1182;68409;-73
2021/09/06 08:35:41;;;;;;;8.50;3.60;;;;;;;22.60;33.20;98248.19;116338;1184;69122;-74
2021/09/06 08:38:11;;;;;;;5.50;3.90;;;;;;;22.85;32.98;98248.53;116214;1180;59595;-73
2021/09/06 08:40:40;;;;;;;7.70;3.80;;;;;;;23.20;33.11;98242.06;116292;1184;59552;-75
2021/09/06 08:43:10;;;;;;;6.30;3.60;;;;;;;23.32;32.32;98247.08;116167;1181;70795;-76
2021/09/06 08:45:40;;;;;;;7.00;3.50;;;;;;;23.37;32.48;98243.88;116284;1180;69042;-78
2021/09/06 08:48:11;;;;;;;6.80;3.80;;;;;;;23.54;32.10;98246.98;116309;1179;68921;-73
2021/09/06 08:50:42;;;;;;;6.50;3.70;;;;;;;23.96;32.07;98240.35;116203;1184;59562;-76
2021/09/06 08:53:12;;;;;;;6.30;3.60;;;;;;;24.42;31.97;98240.51;116294;1179;59551;-74
2021/09/06 08:55:42;;;;;;;7.20;3.80;;;;;;;24.90;31.75;98241.58;116312;1180;70775;-76
2021/09/06 08:58:32;;;;;;;8.10;3.60;;;;;;;25.19;30.16;98239.05;116319;1183;69315;-73
2021/09/06 09:01:02;;;;;;;7.10;3.90;;;;;;;25.44;29.45;98238.07;116245;1180;69539;-78
2021/09/06 09:04:25;;;;;;;6.70;3.90;;;;;;;25.89;29.60;98237.96;116273;1184;59600;-73
2021/09/06 09:07:34;;;;;;;6.10;3.50;;;;;;;25.90;29.27;98231.20;115941;1186;59692;-77
2021/09/06 09:10:38;;;;;;;6.40;3.50;;;;;;;26.25;28.77;98231.45;115935;1187;71150;-72
2021/09/06 09:13:31;;;;;;;5.80;3.50;;;;;;;26.30;28.98;98226.42;116168;1184;69251;-79
2021/09/06 09:16:27;;;;;;;6.00;3.60;;;;;;;26.74;28.53;98226.45;116049;1184;68494;-75
2021/09/06 09:19:32;;;;;;;6.30;3.80;;;;;;;26.96;28.45;98229.17;116089;1184;59510;-80
2021/09/06 09:22:38;;;;;;;7.80;4.20;;;;;;;27.09;27.74;98226.20;116139;1183;59656;-74
2021/09/06 09:25:34;;;;;;;7.00;4.30;;;;;;;27.08;27.60;98230.54;116199;1183;70571;-73
2021/09/06 09:28:27;;;;;;;6.60;4.10;;;;;;;26.77;28.45;98221.46;116129;1184;69297;-77
2021/09/06 09:31:25;;;;;;;7.70;4.00;;;;;;;27.15;28.24;98220.40;115946;1184;69207;-73
2021/09/06 09:34:10;;;;;;;9.00;4.20;;;;;;;26.87;28.07;98222.60;116236;1184;59530;-75
2021/09/06 09:37:04;;;;;;;7.00;3.90;;;;;;;26.97;27.86;98223.67;116156;1183;59581;-73
2021/09/06 09:39:35;;;;;;;6.70;4.10;;;;;;;26.93;28.11;98220.88;116323;1183;70501;-73
2021/09/06 09:42:10;;;;;;;6.50;3.80;;;;;;;27.25;28.23;98214.43;116308;1183;69336;-76
2021/09/06 09:44:48;;;;;;;6.40;3.70;;;;;;;27.33;27.40;98214.64;116308;1179;69243;-76
2021/09/06 09:47:36;;;;;;;6.60;3.80;;;;;;;27.45;27.88;98212.59;116253;1183;59544;-78
2021/09/06 09:50:10;;;;;;;8.30;3.50;;;;;;;27.46;28.05;98213.09;116328;1182;59526;-75
2021/09/06 09:52:42;;;;;;;9.70;3.90;;;;;;;27.80;27.95;98214.97;116253;1184;71436;-75
2021/09/06 09:55:13;;;;;;;9.30;3.80;;;;;;;27.95;26.52;98217.75;116281;1183;68238;-73
2021/09/06 09:57:43;;;;;;;5.80;3.50;;;;;;;27.86;26.71;98213.27;116278;1184;68251;-72
2021/09/06 10:00:15;;;;;;;5.70;4.10;;;;;;;27.82;27.18;98211.83;116288;1183;59548;-73
2021/09/06 10:02:51;;;;;;;8.80;4.10;;;;;;;27.78;27.51;98211.89;116301;1184;59507;-73
2021/09/06 10:05:29;;;;;;;7.20;4.00;;;;;;;28.28;26.41;98210.52;116312;1179;71321;-74
2021/09/06 10:08:03;;;;;;;7.90;4.10;;;;;;;27.74;27.07;98208.65;116316;1183;69254;-76
2021/09/06 10:10:38;;;;;;;8.20;3.90;;;;;;;27.59;28.00;98205.27;116331;1180;68421;-78
2021/09/06 10:13:16;;;;;;;5.50;3.70;;;;;;;28.02;27.47;98199.20;116304;1184;59538;-73
2021/09/06 10:16:02;;;;;;;9.40;4.30;;;;;;;28.17;27.13;98200.54;116279;1183;59530;-71
2021/09/06 10:18:40;;;;;;;12.20;4.60;;;;;;;27.81;27.27;98200.00;116319;1183;69763;-75
2021/09/06 10:21:14;;;;;;;7.70;4.30;;;;;;;27.64;27.07;98202.60;116324;1183;69215;-72
2021/09/06 10:23:51;;;;;;;7.00;4.70;;;;;;;27.96;26.54;98199.10;116283;1184;68461;-76
2021/09/06 10:26:21;;;;;;;8.10;4.30;;;;;;;27.59;27.38;98197.40;116297;1184;59544;-75
2021/09/06 10:28:51;;;;;;;7.40;3.90;;;;;;;27.89;27.38;98199.05;116225;1183;59550;-71
2021/09/06 10:31:22;;;;;;;10.90;4.50;;;;;;;28.49;26.86;98199.02;116252;1183;71352;-73
2021/09/06 10:33:59;;;;;;;7.90;4.40;;;;;;;28.88;26.12;98202.15;116268;1183;69149;-78
2021/09/06 10:36:30;;;;;;;7.20;3.90;;;;;;;28.66;25.67;98196.98;116265;1183;68236;-75
2021/09/06 10:39:08;;;;;;;10.70;5.30;;;;;;;29.28;25.51;98191.02;116271;1182;59539;-75
2021/09/06 10:41:49;;;;;;;7.40;4.80;;;;;;;29.68;24.84;98195.45;116295;1183;59557;-74
2021/09/06 10:44:20;;;;;;;7.50;4.70;;;;;;;29.28;25.93;98194.14;116305;1183;70592;-80
2021/09/06 10:47:05;;;;;;;9.20;5.00;;;;;;;29.68;25.35;98196.85;116347;1183;68459;-78
2021/09/06 10:49:39;;;;;;;10.40;5.00;;;;;;;29.37;25.60;98197.94;116283;1182;68216;-75
2021/09/06 10:52:11;;;;;;;7.30;4.60;;;;;;;29.25;25.69;98195.69;116327;1180;59549;-74
2021/09/06 10:54:42;;;;;;;7.40;5.00;;;;;;;28.84;26.13;98191.45;116327;1182;59548;-74
2021/09/06 10:57:13;;;;;;;8.70;4.60;;;;;;;28.59;26.23;98192.84;116358;1184;71159;-72
2021/09/06 10:59:45;;;;;;;9.90;5.00;;;;;;;28.56;26.84;98190.02;116314;1184;69119;-73
2021/09/06 11:02:16;;;;;;;14.50;5.40;;;;;;;29.02;26.67;98189.10;116271;1183;69282;-75
2021/09/06 11:04:47;;;;;;;8.70;4.90;;;;;;;28.96;26.46;98186.33;116320;1182;59558;-79
2021/09/06 11:07:17;;;;;;;;;;;;;;;28.71;26.86;98191.43;116294;1183;59590;-71
2021/09/06 11:09:46;;;;;;;9.60;5.20;;;;;;;28.84;26.52;98187.31;116286;1183;70360;-72
2021/09/06 11:12:17;;;;;;;8.90;5.30;;;;;;;29.15;26.36;98186.39;116229;1184;69106;-75
2021/09/06 11:14:49;;;;;;;8.90;5.40;;;;;;;29.33;26.33;98184.98;116298;1179;68500;-73
2021/09/06 11:17:24;;;;;;;9.60;5.50;;;;;;;29.17;25.84;98181.89;116208;1184;59630;-73
2021/09/06 11:19:56;;;;;;;10.30;5.30;;;;;;;29.02;26.20;98184.42;116306;1182;59565;-79
2021/09/06 11:22:29;;;;;;;7.60;5.10;;;;;;;29.22;26.79;98185.58;116288;1180;71325;-73
2021/09/06 11:25:01;;;;;;;10.50;4.90;;;;;;;29.37;26.81;98185.64;116206;1184;68226;-73
2021/09/06 11:27:34;;;;;;;7.30;5.10;;;;;;;29.44;26.12;98182.74;116279;1183;69810;-76
2021/09/06 11:30:05;;;;;;;10.20;5.00;;;;;;;28.92;26.32;98178.45;116289;1180;59559;-75
2021/09/06 11:32:47;;;;;;;7.20;5.00;;;;;;;28.49;27.15;98182.73;116310;1183;59469;-74
2021/09/06 11:35:21;;;;;;;9.80;5.20;;;;;;;28.30;27.16;98178.13;116376;1183;71236;-78
2021/09/06 11:37:52;;;;;;;6.60;4.60;;;;;;;28.72;27.27;98179.86;116265;1183;69573;-75
2021/09/06 11:40:21;;;;;;;9.70;4.60;;;;;;;29.14;26.77;98174.02;116258;1185;68319;-74
2021/09/06 11:42:52;;;;;;;6.90;4.80;;;;;;;29.17;27.06;98174.38;116265;1184;59560;-74
2021/09/06 11:45:23;;;;;;;9.20;5.10;;;;;;;29.81;26.14;98171.04;116185;1179;59522;-73
2021/09/06 11:48:01;;;;;;;9.00;4.90;;;;;;;29.69;26.01;98172.51;116316;1179;70507;-80
2021/09/06 11:50:33;;;;;;;10.50;4.30;;;;;;;29.50;26.48;98172.40;116331;1183;69622;-76
2021/09/06 11:53:13;;;;;;;6.30;4.00;;;;;;;29.64;26.36;98175.42;116267;1183;68406;-76